sensor_id;sensor_type;location;lat;lon;timestamp;P1;durP1;ratioP1;P2;durP2;ratioP2
51824;SDS011;37879;52.986;6.282;2023-06-14T00:03:37;5.38;;;2.55;;
51824;SDS011;37879;52.986;6.282;2023-06-14T00:12:30;4.47;;;2.53;;
51824;SDS011;37879;52.986;6.282;2023-06-14T00:15:15;3.55;;;2.10;;
51824;SDS011;37879;52.986;6.282;2023-06-14T00:18:00;5.97;;;2.63;;
51824;SDS011;37879;52.986;6.282;2023-06-14T00:20:45;3.50;;;2.00;;
51824;SDS011;37879;52.986;6.282;2023-06-14T00:29:12;3.30;;;1.87;;
51824;SDS011;37879;52.986;6.282;2023-06-14T00:41:46;4.75;;;2.10;;
51824;SDS011;37879;52.986;6.282;2023-06-14T00:44:12;5.65;;;2.08;;
51824;SDS011;37879;52.986;6.282;2023-06-14T00:50:41;4.55;;;2.20;;
51824;SDS011;37879;52.986;6.282;2023-06-14T00:59:37;4.82;;;1.75;;
51824;SDS011;37879;52.986;6.282;2023-06-14T01:23:56;4.18;;;2.17;;
51824;SDS011;37879;52.986;6.282;2023-06-14T01:26:35;3.08;;;2.00;;
51824;SDS011;37879;52.986;6.282;2023-06-14T01:35:08;3.55;;;1.80;;
51824;SDS011;37879;52.986;6.282;2023-06-14T01:38:15;5.53;;;2.72;;
51824;SDS011;37879;52.986;6.282;2023-06-14T01:41:01;4.18;;;2.00;;
51824;SDS011;37879;52.986;6.282;2023-06-14T01:43:46;6.93;;;2.25;;
51824;SDS011;37879;52.986;6.282;2023-06-14T01:55:24;6.15;;;2.20;;
51824;SDS011;37879;52.986;6.282;2023-06-14T01:58:28;4.82;;;2.28;;
51824;SDS011;37879;52.986;6.282;2023-06-14T02:03:59;7.63;;;2.17;;
51824;SDS011;37879;52.986;6.282;2023-06-14T02:13:10;3.78;;;2.38;;
51824;SDS011;37879;52.986;6.282;2023-06-14T02:21:25;8.98;;;2.58;;
51824;SDS011;37879;52.986;6.282;2023-06-14T02:30:56;4.47;;;2.17;;
51824;SDS011;37879;52.986;6.282;2023-06-14T02:33:59;4.97;;;2.42;;
51824;SDS011;37879;52.986;6.282;2023-06-14T02:37:03;4.40;;;2.03;;
51824;SDS011;37879;52.986;6.282;2023-06-14T02:42:34;5.03;;;2.17;;
51824;SDS011;37879;52.986;6.282;2023-06-14T02:45:00;9.32;;;2.30;;
51824;SDS011;37879;52.986;6.282;2023-06-14T02:47:27;3.03;;;1.90;;
51824;SDS011;37879;52.986;6.282;2023-06-14T02:53:35;6.28;;;2.28;;
51824;SDS011;37879;52.986;6.282;2023-06-14T03:04:54;6.60;;;2.05;;
51824;SDS011;37879;52.986;6.282;2023-06-14T03:07:39;2.70;;;1.70;;
51824;SDS011;37879;52.986;6.282;2023-06-14T03:13:09;3.58;;;1.63;;
51824;SDS011;37879;52.986;6.282;2023-06-14T03:15:36;4.47;;;1.52;;
51824;SDS011;37879;52.986;6.282;2023-06-14T03:22:02;4.32;;;2.72;;
51824;SDS011;37879;52.986;6.282;2023-06-14T03:27:45;3.17;;;1.70;;
51824;SDS011;37879;52.986;6.282;2023-06-14T03:36:18;3.88;;;2.13;;
51824;SDS011;37879;52.986;6.282;2023-06-14T03:51:36;3.72;;;1.75;;
51824;SDS011;37879;52.986;6.282;2023-06-14T03:54:20;4.20;;;1.58;;
51824;SDS011;37879;52.986;6.282;2023-06-14T03:57:05;2.63;;;1.88;;
51824;SDS011;37879;52.986;6.282;2023-06-14T03:59:31;6.20;;;2.60;;
51824;SDS011;37879;52.986;6.282;2023-06-14T04:11:10;4.65;;;2.35;;
51824;SDS011;37879;52.986;6.282;2023-06-14T04:29:17;4.53;;;1.95;;
51824;SDS011;37879;52.986;6.282;2023-06-14T04:32:02;5.38;;;1.75;;
51824;SDS011;37879;52.986;6.282;2023-06-14T04:37:51;2.88;;;1.90;;
51824;SDS011;37879;52.986;6.282;2023-06-14T04:40:35;3.88;;;1.98;;
51824;SDS011;37879;52.986;6.282;2023-06-14T04:43:40;4.47;;;1.92;;
51824;SDS011;37879;52.986;6.282;2023-06-14T04:46:43;2.78;;;1.92;;
51824;SDS011;37879;52.986;6.282;2023-06-14T04:49:46;4.63;;;2.47;;
51824;SDS011;37879;52.986;6.282;2023-06-14T05:05:05;4.72;;;2.42;;
51824;SDS011;37879;52.986;6.282;2023-06-14T05:13:39;6.28;;;2.60;;
51824;SDS011;37879;52.986;6.282;2023-06-14T05:16:24;3.95;;;2.20;;
51824;SDS011;37879;52.986;6.282;2023-06-14T05:19:09;6.03;;;2.35;;
51824;SDS011;37879;52.986;6.282;2023-06-14T05:21:54;10.75;;;3.00;;
51824;SDS011;37879;52.986;6.282;2023-06-14T05:24:38;6.25;;;2.38;;
51824;SDS011;37879;52.986;6.282;2023-06-14T05:27:18;6.55;;;2.58;;
51824;SDS011;37879;52.986;6.282;2023-06-14T05:38:36;3.10;;;2.63;;
51824;SDS011;37879;52.986;6.282;2023-06-14T05:44:43;3.80;;;2.20;;
51824;SDS011;37879;52.986;6.282;2023-06-14T05:47:09;4.57;;;2.25;;
51824;SDS011;37879;52.986;6.282;2023-06-14T06:16:50;3.85;;;2.08;;
51824;SDS011;37879;52.986;6.282;2023-06-14T06:22:38;6.65;;;2.42;;
51824;SDS011;37879;52.986;6.282;2023-06-14T06:29:04;5.68;;;2.30;;
51824;SDS011;37879;52.986;6.282;2023-06-14T06:31:48;5.10;;;2.20;;
51824;SDS011;37879;52.986;6.282;2023-06-14T06:43:26;6.20;;;2.60;;
51824;SDS011;37879;52.986;6.282;2023-06-14T06:52:03;5.28;;;2.40;;
51824;SDS011;37879;52.986;6.282;2023-06-14T06:57:15;3.00;;;1.73;;
51824;SDS011;37879;52.986;6.282;2023-06-14T07:05:48;6.07;;;2.33;;
51824;SDS011;37879;52.986;6.282;2023-06-14T07:08:33;6.25;;;2.30;;
51824;SDS011;37879;52.986;6.282;2023-06-14T07:20:29;3.75;;;1.77;;
51824;SDS011;37879;52.986;6.282;2023-06-14T07:23:14;4.47;;;1.85;;
51824;SDS011;37879;52.986;6.282;2023-06-14T07:29:05;4.35;;;1.95;;
51824;SDS011;37879;52.986;6.282;2023-06-14T07:35:12;4.85;;;2.60;;
51824;SDS011;37879;52.986;6.282;2023-06-14T07:38:15;5.43;;;2.20;;
51824;SDS011;37879;52.986;6.282;2023-06-14T07:41:00;8.73;;;2.00;;
51824;SDS011;37879;52.986;6.282;2023-06-14T08:02:15;5.50;;;1.90;;
51824;SDS011;37879;52.986;6.282;2023-06-14T08:04:59;4.32;;;2.58;;
51824;SDS011;37879;52.986;6.282;2023-06-14T08:07:44;5.03;;;2.40;;
51824;SDS011;37879;52.986;6.282;2023-06-14T08:16:36;4.43;;;1.92;;
51824;SDS011;37879;52.986;6.282;2023-06-14T08:19:40;2.78;;;1.90;;
51824;SDS011;37879;52.986;6.282;2023-06-14T08:22:25;3.85;;;1.88;;
51824;SDS011;37879;52.986;6.282;2023-06-14T08:27:56;5.28;;;1.73;;
51824;SDS011;37879;52.986;6.282;2023-06-14T08:30:29;7.05;;;2.25;;
51824;SDS011;37879;52.986;6.282;2023-06-14T08:33:14;4.60;;;1.95;;
51824;SDS011;37879;52.986;6.282;2023-06-14T08:39:21;4.95;;;1.88;;
51824;SDS011;37879;52.986;6.282;2023-06-14T08:42:06;3.83;;;2.05;;
51824;SDS011;37879;52.986;6.282;2023-06-14T08:51:02;2.45;;;1.65;;
51824;SDS011;37879;52.986;6.282;2023-06-14T09:00:14;3.65;;;2.22;;
51824;SDS011;37879;52.986;6.282;2023-06-14T09:06:21;4.78;;;1.85;;
51824;SDS011;37879;52.986;6.282;2023-06-14T09:09:24;3.60;;;1.90;;
51824;SDS011;37879;52.986;6.282;2023-06-14T09:14:36;2.85;;;1.80;;
51824;SDS011;37879;52.986;6.282;2023-06-14T09:17:23;4.30;;;1.95;;
51824;SDS011;37879;52.986;6.282;2023-06-14T09:25:57;4.40;;;1.60;;
51824;SDS011;37879;52.986;6.282;2023-06-14T09:32:24;4.82;;;2.08;;
51824;SDS011;37879;52.986;6.282;2023-06-14T09:35:09;4.05;;;1.88;;
51824;SDS011;37879;52.986;6.282;2023-06-14T09:44:38;2.00;;;1.50;;
51824;SDS011;37879;52.986;6.282;2023-06-14T09:47:42;4.47;;;1.65;;
51824;SDS011;37879;52.986;6.282;2023-06-14T09:50:28;3.83;;;1.40;;
51824;SDS011;37879;52.986;6.282;2023-06-14T09:56:23;2.65;;;1.70;;
51824;SDS011;37879;52.986;6.282;2023-06-14T10:01:57;3.75;;;2.00;;
51824;SDS011;37879;52.986;6.282;2023-06-14T10:07:53;3.83;;;1.63;;
51824;SDS011;37879;52.986;6.282;2023-06-14T10:16:54;4.25;;;1.90;;
51824;SDS011;37879;52.986;6.282;2023-06-14T13:41:55;2.13;;;1.60;;
51824;SDS011;37879;52.986;6.282;2023-06-14T13:47:43;2.63;;;1.20;;
51824;SDS011;37879;52.986;6.282;2023-06-14T13:50:10;1.75;;;1.20;;
51824;SDS011;37879;52.986;6.282;2023-06-14T13:52:36;3.15;;;1.17;;
51824;SDS011;37879;52.986;6.282;2023-06-14T13:55:02;3.50;;;1.13;;
51824;SDS011;37879;52.986;6.282;2023-06-14T13:57:28;1.75;;;0.98;;
51824;SDS011;37879;52.986;6.282;2023-06-14T13:59:54;4.65;;;1.45;;
51824;SDS011;37879;52.986;6.282;2023-06-14T14:02:25;4.05;;;1.35;;
51824;SDS011;37879;52.986;6.282;2023-06-14T14:04:51;2.90;;;1.30;;
51824;SDS011;37879;52.986;6.282;2023-06-14T14:07:18;3.83;;;1.50;;
51824;SDS011;37879;52.986;6.282;2023-06-14T14:09:45;1.92;;;1.30;;
51824;SDS011;37879;52.986;6.282;2023-06-14T14:12:12;2.47;;;1.63;;
51824;SDS011;37879;52.986;6.282;2023-06-14T14:14:39;2.15;;;1.35;;
51824;SDS011;37879;52.986;6.282;2023-06-14T14:17:06;4.40;;;1.77;;
51824;SDS011;37879;52.986;6.282;2023-06-14T14:19:32;1.63;;;1.10;;
51824;SDS011;37879;52.986;6.282;2023-06-14T14:21:58;4.20;;;1.75;;
51824;SDS011;37879;52.986;6.282;2023-06-14T14:24:26;2.60;;;1.65;;
51824;SDS011;37879;52.986;6.282;2023-06-14T14:26:52;3.90;;;1.40;;
51824;SDS011;37879;52.986;6.282;2023-06-14T14:29:19;2.40;;;1.45;;
51824;SDS011;37879;52.986;6.282;2023-06-14T14:31:45;1.50;;;0.90;;
51824;SDS011;37879;52.986;6.282;2023-06-14T14:34:11;3.25;;;1.20;;
51824;SDS011;37879;52.986;6.282;2023-06-14T14:36:37;2.63;;;1.30;;
51824;SDS011;37879;52.986;6.282;2023-06-14T14:39:07;2.95;;;1.55;;
51824;SDS011;37879;52.986;6.282;2023-06-14T14:41:33;3.53;;;1.48;;
51824;SDS011;37879;52.986;6.282;2023-06-14T14:43:59;2.33;;;1.20;;
51824;SDS011;37879;52.986;6.282;2023-06-14T14:46:26;3.30;;;1.40;;
51824;SDS011;37879;52.986;6.282;2023-06-14T14:48:53;2.75;;;1.25;;
51824;SDS011;37879;52.986;6.282;2023-06-14T14:51:19;3.22;;;2.00;;
51824;SDS011;37879;52.986;6.282;2023-06-14T14:53:45;2.00;;;1.23;;
51824;SDS011;37879;52.986;6.282;2023-06-14T14:56:11;1.95;;;1.20;;
51824;SDS011;37879;52.986;6.282;2023-06-14T14:58:37;2.38;;;1.48;;
51824;SDS011;37879;52.986;6.282;2023-06-14T15:01:03;1.83;;;1.45;;
51824;SDS011;37879;52.986;6.282;2023-06-14T15:03:30;3.92;;;1.83;;
51824;SDS011;37879;52.986;6.282;2023-06-14T15:05:57;2.92;;;1.80;;
51824;SDS011;37879;52.986;6.282;2023-06-14T15:08:23;2.45;;;1.35;;
51824;SDS011;37879;52.986;6.282;2023-06-14T15:10:49;2.88;;;1.83;;
51824;SDS011;37879;52.986;6.282;2023-06-14T15:13:15;1.70;;;0.98;;
51824;SDS011;37879;52.986;6.282;2023-06-14T15:15:41;5.28;;;1.85;;
51824;SDS011;37879;52.986;6.282;2023-06-14T15:18:07;2.75;;;1.90;;
51824;SDS011;37879;52.986;6.282;2023-06-14T15:20:34;4.20;;;2.72;;
51824;SDS011;37879;52.986;6.282;2023-06-14T15:23:00;7.13;;;5.28;;
51824;SDS011;37879;52.986;6.282;2023-06-14T15:25:27;3.45;;;2.17;;
51824;SDS011;37879;52.986;6.282;2023-06-14T15:27:53;2.15;;;1.40;;
51824;SDS011;37879;52.986;6.282;2023-06-14T15:30:19;3.38;;;1.13;;
51824;SDS011;37879;52.986;6.282;2023-06-14T15:32:45;2.38;;;1.38;;
51824;SDS011;37879;52.986;6.282;2023-06-14T15:35:12;2.00;;;1.17;;
51824;SDS011;37879;52.986;6.282;2023-06-14T15:37:38;5.25;;;2.20;;
51824;SDS011;37879;52.986;6.282;2023-06-14T15:40:05;3.90;;;1.63;;
51824;SDS011;37879;52.986;6.282;2023-06-14T15:42:31;2.60;;;1.73;;
51824;SDS011;37879;52.986;6.282;2023-06-14T15:44:57;2.70;;;1.52;;
51824;SDS011;37879;52.986;6.282;2023-06-14T15:47:23;2.63;;;1.73;;
51824;SDS011;37879;52.986;6.282;2023-06-14T15:49:49;3.67;;;1.95;;
51824;SDS011;37879;52.986;6.282;2023-06-14T15:52:15;2.20;;;1.55;;
51824;SDS011;37879;52.986;6.282;2023-06-14T15:54:42;2.70;;;1.50;;
51824;SDS011;37879;52.986;6.282;2023-06-14T15:57:08;1.85;;;1.13;;
51824;SDS011;37879;52.986;6.282;2023-06-14T15:59:34;2.45;;;1.70;;
51824;SDS011;37879;52.986;6.282;2023-06-14T16:02:00;2.90;;;1.65;;
51824;SDS011;37879;52.986;6.282;2023-06-14T16:04:27;2.72;;;1.33;;
51824;SDS011;37879;52.986;6.282;2023-06-14T16:06:54;4.07;;;1.75;;
51824;SDS011;37879;52.986;6.282;2023-06-14T16:09:20;3.05;;;1.30;;
51824;SDS011;37879;52.986;6.282;2023-06-14T16:11:46;2.40;;;2.03;;
51824;SDS011;37879;52.986;6.282;2023-06-14T16:14:12;3.30;;;1.67;;
51824;SDS011;37879;52.986;6.282;2023-06-14T16:16:38;3.10;;;1.90;;
51824;SDS011;37879;52.986;6.282;2023-06-14T16:19:05;3.40;;;2.08;;
51824;SDS011;37879;52.986;6.282;2023-06-14T16:21:31;2.45;;;1.83;;
51824;SDS011;37879;52.986;6.282;2023-06-14T16:24:03;2.22;;;1.63;;
51824;SDS011;37879;52.986;6.282;2023-06-14T16:26:40;3.80;;;1.60;;
51824;SDS011;37879;52.986;6.282;2023-06-14T16:29:13;2.20;;;1.80;;
51824;SDS011;37879;52.986;6.282;2023-06-14T16:31:52;2.40;;;1.70;;
51824;SDS011;37879;52.986;6.282;2023-06-14T16:34:24;2.88;;;1.92;;
51824;SDS011;37879;52.986;6.282;2023-06-14T16:36:51;3.97;;;1.55;;
51824;SDS011;37879;52.986;6.282;2023-06-14T16:39:23;1.77;;;1.38;;
51824;SDS011;37879;52.986;6.282;2023-06-14T16:41:49;2.25;;;1.80;;
51824;SDS011;37879;52.986;6.282;2023-06-14T16:44:15;3.05;;;1.95;;
51824;SDS011;37879;52.986;6.282;2023-06-14T16:46:42;2.63;;;1.58;;
51824;SDS011;37879;52.986;6.282;2023-06-14T16:49:08;2.65;;;1.65;;
51824;SDS011;37879;52.986;6.282;2023-06-14T16:51:34;3.88;;;2.13;;
51824;SDS011;37879;52.986;6.282;2023-06-14T16:54:00;4.03;;;2.53;;
51824;SDS011;37879;52.986;6.282;2023-06-14T16:56:26;3.28;;;2.00;;
51824;SDS011;37879;52.986;6.282;2023-06-14T16:58:56;2.35;;;1.55;;
51824;SDS011;37879;52.986;6.282;2023-06-14T17:01:22;3.95;;;2.40;;
51824;SDS011;37879;52.986;6.282;2023-06-14T17:03:49;5.15;;;3.00;;
51824;SDS011;37879;52.986;6.282;2023-06-14T17:06:15;3.60;;;2.10;;
51824;SDS011;37879;52.986;6.282;2023-06-14T17:08:42;4.25;;;2.40;;
51824;SDS011;37879;52.986;6.282;2023-06-14T17:11:08;2.55;;;2.00;;
51824;SDS011;37879;52.986;6.282;2023-06-14T17:13:34;3.05;;;1.70;;
51824;SDS011;37879;52.986;6.282;2023-06-14T17:16:03;3.13;;;2.05;;
51824;SDS011;37879;52.986;6.282;2023-06-14T17:18:31;4.32;;;2.28;;
51824;SDS011;37879;52.986;6.282;2023-06-14T17:20:57;2.35;;;1.60;;
51824;SDS011;37879;52.986;6.282;2023-06-14T17:23:23;3.67;;;2.13;;
51824;SDS011;37879;52.986;6.282;2023-06-14T17:25:49;5.05;;;2.10;;
51824;SDS011;37879;52.986;6.282;2023-06-14T17:28:15;4.43;;;2.03;;
51824;SDS011;37879;52.986;6.282;2023-06-14T17:30:42;5.78;;;1.83;;
51824;SDS011;37879;52.986;6.282;2023-06-14T17:33:08;2.85;;;1.73;;
51824;SDS011;37879;52.986;6.282;2023-06-14T17:35:35;2.38;;;1.50;;
51824;SDS011;37879;52.986;6.282;2023-06-14T17:38:02;3.13;;;1.67;;
51824;SDS011;37879;52.986;6.282;2023-06-14T17:40:28;3.03;;;2.28;;
51824;SDS011;37879;52.986;6.282;2023-06-14T17:42:54;2.85;;;2.15;;
51824;SDS011;37879;52.986;6.282;2023-06-14T17:45:20;4.18;;;1.90;;
51824;SDS011;37879;52.986;6.282;2023-06-14T17:47:46;2.83;;;1.58;;
51824;SDS011;37879;52.986;6.282;2023-06-14T17:50:12;3.38;;;1.55;;
51824;SDS011;37879;52.986;6.282;2023-06-14T17:52:38;4.18;;;2.20;;
51824;SDS011;37879;52.986;6.282;2023-06-14T17:55:05;4.65;;;2.30;;
51824;SDS011;37879;52.986;6.282;2023-06-14T17:57:31;7.85;;;2.63;;
51824;SDS011;37879;52.986;6.282;2023-06-14T17:59:57;4.88;;;2.60;;
51824;SDS011;37879;52.986;6.282;2023-06-14T18:02:23;4.10;;;2.25;;
51824;SDS011;37879;52.986;6.282;2023-06-14T18:04:49;5.25;;;2.22;;
51824;SDS011;37879;52.986;6.282;2023-06-14T18:07:15;5.68;;;2.78;;
51824;SDS011;37879;52.986;6.282;2023-06-14T18:09:41;4.47;;;2.40;;
51824;SDS011;37879;52.986;6.282;2023-06-14T18:12:07;6.30;;;2.40;;
51824;SDS011;37879;52.986;6.282;2023-06-14T18:14:34;5.10;;;2.22;;
51824;SDS011;37879;52.986;6.282;2023-06-14T18:17:00;5.70;;;2.45;;
51824;SDS011;37879;52.986;6.282;2023-06-14T18:19:26;4.10;;;2.70;;
51824;SDS011;37879;52.986;6.282;2023-06-14T18:21:53;4.47;;;2.50;;
51824;SDS011;37879;52.986;6.282;2023-06-14T18:24:20;6.15;;;2.83;;
51824;SDS011;37879;52.986;6.282;2023-06-14T18:26:46;4.70;;;2.50;;
51824;SDS011;37879;52.986;6.282;2023-06-14T18:29:13;5.15;;;3.05;;
51824;SDS011;37879;52.986;6.282;2023-06-14T18:31:40;6.15;;;3.45;;
51824;SDS011;37879;52.986;6.282;2023-06-14T18:34:06;5.63;;;2.42;;
51824;SDS011;37879;52.986;6.282;2023-06-14T18:36:34;3.53;;;2.22;;
51824;SDS011;37879;52.986;6.282;2023-06-14T18:39:02;5.85;;;2.78;;
51824;SDS011;37879;52.986;6.282;2023-06-14T18:41:28;5.50;;;2.30;;
51824;SDS011;37879;52.986;6.282;2023-06-14T18:43:54;4.50;;;2.33;;
51824;SDS011;37879;52.986;6.282;2023-06-14T18:46:21;6.10;;;2.53;;
51824;SDS011;37879;52.986;6.282;2023-06-14T18:48:48;7.50;;;3.00;;
51824;SDS011;37879;52.986;6.282;2023-06-14T18:51:14;4.15;;;2.13;;
51824;SDS011;37879;52.986;6.282;2023-06-14T18:53:40;4.13;;;2.65;;
51824;SDS011;37879;52.986;6.282;2023-06-14T18:56:07;7.55;;;3.05;;
51824;SDS011;37879;52.986;6.282;2023-06-14T18:58:33;4.90;;;2.63;;
51824;SDS011;37879;52.986;6.282;2023-06-14T19:00:59;4.68;;;2.60;;
51824;SDS011;37879;52.986;6.282;2023-06-14T19:03:25;3.67;;;2.55;;
51824;SDS011;37879;52.986;6.282;2023-06-14T19:05:51;4.40;;;2.17;;
51824;SDS011;37879;52.986;6.282;2023-06-14T19:08:20;3.78;;;2.35;;
51824;SDS011;37879;52.986;6.282;2023-06-14T19:10:47;5.45;;;2.50;;
51824;SDS011;37879;52.986;6.282;2023-06-14T19:13:13;4.50;;;2.42;;
51824;SDS011;37879;52.986;6.282;2023-06-14T19:15:39;3.63;;;2.17;;
51824;SDS011;37879;52.986;6.282;2023-06-14T19:18:05;5.65;;;2.40;;
51824;SDS011;37879;52.986;6.282;2023-06-14T19:20:32;3.40;;;2.28;;
51824;SDS011;37879;52.986;6.282;2023-06-14T19:22:58;6.25;;;2.45;;
51824;SDS011;37879;52.986;6.282;2023-06-14T19:25:25;4.10;;;2.40;;
51824;SDS011;37879;52.986;6.282;2023-06-14T19:27:51;5.95;;;2.53;;
51824;SDS011;37879;52.986;6.282;2023-06-14T19:30:18;5.28;;;1.98;;
51824;SDS011;37879;52.986;6.282;2023-06-14T19:32:44;4.10;;;2.35;;
51824;SDS011;37879;52.986;6.282;2023-06-14T19:35:12;5.53;;;2.55;;
51824;SDS011;37879;52.986;6.282;2023-06-14T19:37:38;6.78;;;2.55;;
51824;SDS011;37879;52.986;6.282;2023-06-14T19:40:04;6.68;;;2.25;;
51824;SDS011;37879;52.986;6.282;2023-06-14T19:42:31;3.97;;;2.30;;
51824;SDS011;37879;52.986;6.282;2023-06-14T19:44:57;3.72;;;2.28;;
51824;SDS011;37879;52.986;6.282;2023-06-14T19:47:24;5.07;;;2.30;;
51824;SDS011;37879;52.986;6.282;2023-06-14T19:49:50;4.47;;;2.47;;
51824;SDS011;37879;52.986;6.282;2023-06-14T19:52:16;5.45;;;2.67;;
51824;SDS011;37879;52.986;6.282;2023-06-14T19:54:44;4.72;;;2.45;;
51824;SDS011;37879;52.986;6.282;2023-06-14T19:57:10;5.43;;;2.30;;
51824;SDS011;37879;52.986;6.282;2023-06-14T19:59:36;6.10;;;2.35;;
51824;SDS011;37879;52.986;6.282;2023-06-14T20:02:02;5.65;;;2.35;;
51824;SDS011;37879;52.986;6.282;2023-06-14T20:04:28;5.75;;;1.98;;
51824;SDS011;37879;52.986;6.282;2023-06-14T20:06:55;4.13;;;2.03;;
51824;SDS011;37879;52.986;6.282;2023-06-14T20:09:23;5.75;;;2.28;;
51824;SDS011;37879;52.986;6.282;2023-06-14T20:11:51;3.55;;;1.88;;
51824;SDS011;37879;52.986;6.282;2023-06-14T20:14:17;3.65;;;2.17;;
51824;SDS011;37879;52.986;6.282;2023-06-14T20:16:43;3.25;;;2.30;;
51824;SDS011;37879;52.986;6.282;2023-06-14T20:19:09;3.72;;;2.28;;
51824;SDS011;37879;52.986;6.282;2023-06-14T20:21:36;4.05;;;2.65;;
51824;SDS011;37879;52.986;6.282;2023-06-14T20:24:02;4.40;;;2.42;;
51824;SDS011;37879;52.986;6.282;2023-06-14T20:26:28;4.35;;;2.72;;
51824;SDS011;37879;52.986;6.282;2023-06-14T20:28:54;6.13;;;2.55;;
51824;SDS011;37879;52.986;6.282;2023-06-14T20:31:21;5.28;;;2.00;;
51824;SDS011;37879;52.986;6.282;2023-06-14T20:33:47;4.80;;;2.22;;
51824;SDS011;37879;52.986;6.282;2023-06-14T20:36:14;5.70;;;2.33;;
51824;SDS011;37879;52.986;6.282;2023-06-14T20:38:40;7.97;;;2.63;;
51824;SDS011;37879;52.986;6.282;2023-06-14T20:41:06;3.75;;;2.40;;
51824;SDS011;37879;52.986;6.282;2023-06-14T20:43:32;5.78;;;2.00;;
51824;SDS011;37879;52.986;6.282;2023-06-14T20:45:58;4.35;;;2.03;;
51824;SDS011;37879;52.986;6.282;2023-06-14T20:48:24;3.95;;;2.25;;
51824;SDS011;37879;52.986;6.282;2023-06-14T20:50:52;3.67;;;1.83;;
51824;SDS011;37879;52.986;6.282;2023-06-14T20:53:18;3.90;;;2.70;;
51824;SDS011;37879;52.986;6.282;2023-06-14T20:55:44;5.65;;;2.10;;
51824;SDS011;37879;52.986;6.282;2023-06-14T20:58:11;3.88;;;1.95;;
51824;SDS011;37879;52.986;6.282;2023-06-14T21:00:38;3.67;;;2.08;;
51824;SDS011;37879;52.986;6.282;2023-06-14T21:03:06;7.80;;;2.78;;
51824;SDS011;37879;52.986;6.282;2023-06-14T21:05:32;6.03;;;2.33;;
51824;SDS011;37879;52.986;6.282;2023-06-14T21:07:58;4.55;;;2.38;;
51824;SDS011;37879;52.986;6.282;2023-06-14T21:10:25;4.72;;;2.42;;
51824;SDS011;37879;52.986;6.282;2023-06-14T21:12:52;4.57;;;2.75;;
51824;SDS011;37879;52.986;6.282;2023-06-14T21:15:20;3.58;;;2.30;;
51824;SDS011;37879;52.986;6.282;2023-06-14T21:17:53;2.80;;;2.20;;
51824;SDS011;37879;52.986;6.282;2023-06-14T21:20:20;4.40;;;2.67;;
51824;SDS011;37879;52.986;6.282;2023-06-14T21:22:46;7.68;;;2.30;;
51824;SDS011;37879;52.986;6.282;2023-06-14T21:25:13;4.53;;;2.60;;
51824;SDS011;37879;52.986;6.282;2023-06-14T21:27:39;4.53;;;2.28;;
51824;SDS011;37879;52.986;6.282;2023-06-14T21:30:05;5.85;;;2.50;;
51824;SDS011;37879;52.986;6.282;2023-06-14T21:32:33;5.22;;;2.75;;
51824;SDS011;37879;52.986;6.282;2023-06-14T21:34:59;4.57;;;2.65;;
51824;SDS011;37879;52.986;6.282;2023-06-14T21:37:25;5.28;;;2.42;;
51824;SDS011;37879;52.986;6.282;2023-06-14T21:39:51;3.42;;;2.40;;
51824;SDS011;37879;52.986;6.282;2023-06-14T21:42:17;8.45;;;3.35;;
51824;SDS011;37879;52.986;6.282;2023-06-14T21:44:43;4.95;;;2.92;;
51824;SDS011;37879;52.986;6.282;2023-06-14T21:47:11;12.93;;;2.80;;
51824;SDS011;37879;52.986;6.282;2023-06-14T21:49:38;3.30;;;2.30;;
51824;SDS011;37879;52.986;6.282;2023-06-14T21:52:04;6.00;;;3.15;;
51824;SDS011;37879;52.986;6.282;2023-06-14T21:54:31;6.47;;;2.72;;
51824;SDS011;37879;52.986;6.282;2023-06-14T21:56:57;5.30;;;2.75;;
51824;SDS011;37879;52.986;6.282;2023-06-14T21:59:23;6.50;;;2.85;;
51824;SDS011;37879;52.986;6.282;2023-06-14T22:01:49;6.13;;;2.58;;
51824;SDS011;37879;52.986;6.282;2023-06-14T22:04:15;3.65;;;2.58;;
51824;SDS011;37879;52.986;6.282;2023-06-14T22:06:41;4.47;;;2.70;;
51824;SDS011;37879;52.986;6.282;2023-06-14T22:09:10;6.93;;;3.33;;
51824;SDS011;37879;52.986;6.282;2023-06-14T22:11:43;5.70;;;2.80;;
51824;SDS011;37879;52.986;6.282;2023-06-14T22:14:10;8.15;;;3.15;;
51824;SDS011;37879;52.986;6.282;2023-06-14T22:16:37;6.15;;;2.70;;
51824;SDS011;37879;52.986;6.282;2023-06-14T22:19:04;5.03;;;2.80;;
51824;SDS011;37879;52.986;6.282;2023-06-14T22:21:30;4.35;;;2.05;;
51824;SDS011;37879;52.986;6.282;2023-06-14T22:23:59;5.30;;;2.85;;
51824;SDS011;37879;52.986;6.282;2023-06-14T22:26:25;5.00;;;2.78;;
51824;SDS011;37879;52.986;6.282;2023-06-14T22:28:52;3.47;;;2.22;;
51824;SDS011;37879;52.986;6.282;2023-06-14T22:31:18;3.58;;;2.25;;
51824;SDS011;37879;52.986;6.282;2023-06-14T22:33:45;3.67;;;2.38;;
51824;SDS011;37879;52.986;6.282;2023-06-14T22:36:12;7.40;;;2.78;;
51824;SDS011;37879;52.986;6.282;2023-06-14T22:38:41;3.42;;;2.05;;
51824;SDS011;37879;52.986;6.282;2023-06-14T22:41:07;6.00;;;3.08;;
51824;SDS011;37879;52.986;6.282;2023-06-14T22:43:37;5.13;;;2.63;;
51824;SDS011;37879;52.986;6.282;2023-06-14T22:46:04;4.78;;;3.20;;
51824;SDS011;37879;52.986;6.282;2023-06-14T22:48:34;4.63;;;2.40;;
51824;SDS011;37879;52.986;6.282;2023-06-14T22:51:12;5.25;;;2.53;;
51824;SDS011;37879;52.986;6.282;2023-06-14T22:53:39;4.82;;;2.45;;
51824;SDS011;37879;52.986;6.282;2023-06-14T22:56:05;4.47;;;2.45;;
51824;SDS011;37879;52.986;6.282;2023-06-14T22:58:32;7.00;;;3.08;;
51824;SDS011;37879;52.986;6.282;2023-06-14T23:00:58;3.03;;;2.20;;
51824;SDS011;37879;52.986;6.282;2023-06-14T23:03:26;3.40;;;2.55;;
51824;SDS011;37879;52.986;6.282;2023-06-14T23:05:53;4.25;;;2.38;;
51824;SDS011;37879;52.986;6.282;2023-06-14T23:08:21;2.75;;;2.25;;
51824;SDS011;37879;52.986;6.282;2023-06-14T23:10:47;4.53;;;2.63;;
51824;SDS011;37879;52.986;6.282;2023-06-14T23:13:14;3.25;;;2.10;;
51824;SDS011;37879;52.986;6.282;2023-06-14T23:15:41;3.38;;;2.13;;
51824;SDS011;37879;52.986;6.282;2023-06-14T23:18:07;3.95;;;2.20;;
51824;SDS011;37879;52.986;6.282;2023-06-14T23:20:35;4.88;;;2.58;;
51824;SDS011;37879;52.986;6.282;2023-06-14T23:23:02;3.30;;;2.00;;
51824;SDS011;37879;52.986;6.282;2023-06-14T23:25:31;3.85;;;2.40;;
51824;SDS011;37879;52.986;6.282;2023-06-14T23:28:03;7.15;;;2.50;;
51824;SDS011;37879;52.986;6.282;2023-06-14T23:30:33;3.38;;;2.10;;
51824;SDS011;37879;52.986;6.282;2023-06-14T23:33:04;5.47;;;2.15;;
51824;SDS011;37879;52.986;6.282;2023-06-14T23:35:30;3.70;;;2.78;;
51824;SDS011;37879;52.986;6.282;2023-06-14T23:37:58;5.35;;;2.28;;
51824;SDS011;37879;52.986;6.282;2023-06-14T23:40:27;3.85;;;2.42;;
51824;SDS011;37879;52.986;6.282;2023-06-14T23:42:54;3.75;;;2.38;;
51824;SDS011;37879;52.986;6.282;2023-06-14T23:45:20;9.70;;;3.05;;
51824;SDS011;37879;52.986;6.282;2023-06-14T23:47:48;4.47;;;2.13;;
51824;SDS011;37879;52.986;6.282;2023-06-14T23:50:14;4.38;;;2.35;;
51824;SDS011;37879;52.986;6.282;2023-06-14T23:52:41;3.17;;;2.03;;
51824;SDS011;37879;52.986;6.282;2023-06-14T23:55:08;3.65;;;2.33;;
51824;SDS011;37879;52.986;6.282;2023-06-14T23:57:41;3.22;;;2.38;;
